createdAt,value
2023-04-12T00:41:07.117Z,9.00
2023-04-12T00:43:34.904Z,9.00
2023-04-12T00:46:02.961Z,9.00
2023-04-12T00:48:32.058Z,9.00
2023-04-12T00:51:01.043Z,9.00
2023-04-12T00:53:29.441Z,9.00
2023-04-12T00:55:57.757Z,9.00
2023-04-12T00:58:26.923Z,8.90
2023-04-12T01:00:54.861Z,8.90
2023-04-12T01:03:24.065Z,9.00
2023-04-12T01:05:56.312Z,9.00
2023-04-12T01:08:28.591Z,8.90
2023-04-12T01:10:58.995Z,9.10
2023-04-12T01:13:33.133Z,9.00
2023-04-12T01:16:02.616Z,9.00
2023-04-12T01:18:31.721Z,9.00
2023-04-12T01:21:02.776Z,9.00
2023-04-12T01:23:48.313Z,8.90
2023-04-12T01:26:24.492Z,9.00
2023-04-12T01:28:55.217Z,8.90
2023-04-12T01:31:26.214Z,9.00
2023-04-12T01:33:55.375Z,8.90
2023-04-12T01:36:24.646Z,8.90
2023-04-12T01:38:52.997Z,8.90
2023-04-12T01:41:21.005Z,8.90
2023-04-12T01:43:49.431Z,8.90
2023-04-12T01:46:20.949Z,8.90
2023-04-12T01:48:50.696Z,8.90
2023-04-12T01:51:21.496Z,8.90
2023-04-12T01:53:50.414Z,8.90
2023-04-12T01:56:20.290Z,8.90
2023-04-12T01:58:49.183Z,8.90
2023-04-12T02:01:19.523Z,8.90
2023-04-12T02:03:49.685Z,8.90
2023-04-12T02:06:20.006Z,8.90
2023-04-12T02:08:48.113Z,9.00
2023-04-12T02:11:16.056Z,8.90
2023-04-12T02:13:43.847Z,8.90
2023-04-12T02:16:14.107Z,8.90
2023-04-12T02:18:44.275Z,8.90
2023-04-12T02:21:12.009Z,8.90
2023-04-12T02:23:39.900Z,8.90
2023-04-12T02:26:07.878Z,8.90
2023-04-12T02:28:37.212Z,8.90
2023-04-12T02:31:05.095Z,8.90
2023-04-12T02:33:33.337Z,8.90
2023-04-12T02:36:03.166Z,8.90
2023-04-12T02:38:31.395Z,8.90
2023-04-12T02:40:59.322Z,8.80
2023-04-12T02:43:27.102Z,8.90
2023-04-12T02:45:55.013Z,8.90
2023-04-12T02:48:23.031Z,8.90
2023-04-12T02:50:50.781Z,8.90
2023-04-12T02:53:19.979Z,9.00
2023-04-12T02:55:48.205Z,8.90
2023-04-12T02:58:16.749Z,8.90
2023-04-12T03:00:45.810Z,8.90
2023-04-12T03:03:14.074Z,8.90
2023-04-12T03:05:42.636Z,8.90
2023-04-12T03:08:10.435Z,8.90
2023-04-12T03:10:39.751Z,8.90
2023-04-12T03:13:07.553Z,8.90
2023-04-12T03:15:35.611Z,8.90
2023-04-12T03:18:03.678Z,8.90
2023-04-12T03:20:31.371Z,8.80
2023-04-12T03:22:59.072Z,8.80
2023-04-12T03:25:27.402Z,8.80
2023-04-12T03:27:56.572Z,8.80
2023-04-12T03:30:24.358Z,8.80
2023-04-12T03:32:52.393Z,8.80
2023-04-12T03:35:20.251Z,8.80
2023-04-12T03:37:48.323Z,8.80
2023-04-12T03:40:16.287Z,8.80
2023-04-12T03:42:44.048Z,8.80
2023-04-12T03:45:13.534Z,8.80
2023-04-12T03:47:41.935Z,8.80
2023-04-12T03:50:12.400Z,8.80
2023-04-12T03:52:40.549Z,8.80
2023-04-12T03:55:08.720Z,8.80
2023-04-12T03:57:36.629Z,8.80
2023-04-12T04:00:04.727Z,8.80
2023-04-12T04:02:34.010Z,8.80
2023-04-12T04:05:02.465Z,8.80
2023-04-12T04:07:31.708Z,8.80
2023-04-12T04:09:59.729Z,8.80
2023-04-12T04:12:28.142Z,8.80
2023-04-12T04:14:55.887Z,8.80
2023-04-12T04:17:23.825Z,8.80
2023-04-12T04:19:53.059Z,8.80
2023-04-12T04:22:21.588Z,8.80
2023-04-12T04:24:50.288Z,8.80
2023-04-12T04:27:18.055Z,8.90
2023-04-12T04:29:45.845Z,8.80
2023-04-12T04:32:13.774Z,8.90
2023-04-12T04:34:41.652Z,8.80
2023-04-12T04:37:10.755Z,8.80
2023-04-12T04:39:38.634Z,8.80
2023-04-12T04:42:06.773Z,8.90
2023-04-12T04:44:36.132Z,8.90
2023-04-12T04:47:05.021Z,8.90
2023-04-12T04:49:33.918Z,8.90
2023-04-12T04:52:02.239Z,8.90
2023-04-12T04:54:31.937Z,8.90
2023-04-12T04:56:59.744Z,8.90
2023-04-12T04:59:27.878Z,8.90
2023-04-12T05:01:55.774Z,8.90
2023-04-12T05:04:23.531Z,8.90
2023-04-12T05:06:51.331Z,9.00
2023-04-12T05:09:19.228Z,9.00
2023-04-12T05:11:48.276Z,9.00
2023-04-12T05:14:16.268Z,9.00
2023-04-12T05:16:44.204Z,9.00
2023-04-12T05:19:12.117Z,9.00
2023-04-12T05:21:39.990Z,9.00
2023-04-12T05:24:08.156Z,9.00
2023-04-12T05:26:36.081Z,9.00
2023-04-12T05:29:06.201Z,9.00
2023-04-12T05:31:34.111Z,9.00
2023-04-12T05:34:01.928Z,9.10
2023-04-12T05:36:29.858Z,9.10
2023-04-12T05:38:57.889Z,9.10
2023-04-12T05:41:25.789Z,9.10
2023-04-12T05:43:53.701Z,9.10
2023-04-12T05:46:23.080Z,9.20
2023-04-12T05:48:50.906Z,9.20
2023-04-12T05:51:25.223Z,9.20
2023-04-12T05:53:58.797Z,9.20
2023-04-12T05:56:26.759Z,9.20
2023-04-12T05:58:54.823Z,9.20
2023-04-12T06:01:32.405Z,9.20
2023-04-12T06:04:02.398Z,9.30
2023-04-12T06:06:30.435Z,9.30
2023-04-12T06:09:00.870Z,9.30
2023-04-12T06:11:28.860Z,9.50
2023-04-12T06:13:57.192Z,9.40
2023-04-12T06:16:26.412Z,9.40
2023-04-12T06:18:54.252Z,9.40
2023-04-12T06:21:22.224Z,9.40
2023-04-12T06:23:49.887Z,9.50
2023-04-12T06:26:18.560Z,9.50
2023-04-12T06:28:46.921Z,9.50
2023-04-12T06:31:14.918Z,9.50
2023-04-12T06:33:43.998Z,9.40
2023-04-12T06:36:12.839Z,9.50
2023-04-12T06:38:41.004Z,9.50
2023-04-12T06:41:08.819Z,9.50
2023-04-12T06:43:36.992Z,9.60
2023-04-12T06:46:04.983Z,9.60
2023-04-12T06:48:33.137Z,9.60
2023-04-12T06:51:02.646Z,9.70
2023-04-12T06:53:30.882Z,9.70
2023-04-12T06:55:58.736Z,9.80
2023-04-12T06:58:26.672Z,9.90
2023-04-12T07:00:54.839Z,9.90
2023-04-12T07:03:24.663Z,9.90
2023-04-12T07:05:56.480Z,9.90
2023-04-12T07:08:26.628Z,10.00
2023-04-12T07:10:55.534Z,9.90
2023-04-12T07:13:23.518Z,9.90
2023-04-12T07:15:51.773Z,9.90
2023-04-12T07:18:19.598Z,9.90
2023-04-12T07:20:48.136Z,10.00
2023-04-12T07:23:16.355Z,10.00
2023-04-12T07:25:45.838Z,10.00
2023-04-12T07:28:13.833Z,10.10
2023-04-12T07:30:41.547Z,10.10
2023-04-12T07:33:19.017Z,10.20
2023-04-12T07:35:47.782Z,10.30
2023-04-12T07:38:16.866Z,10.40
2023-04-12T07:40:49.238Z,10.50
2023-04-12T07:43:18.467Z,10.40
2023-04-12T07:45:46.796Z,10.30
2023-04-12T07:48:14.844Z,10.30
2023-04-12T07:50:44.853Z,10.20
2023-04-12T07:53:20.067Z,10.20
2023-04-12T07:55:49.683Z,10.20
2023-04-12T07:58:18.241Z,10.20
2023-04-12T08:00:46.764Z,10.30
2023-04-12T08:03:15.590Z,10.50
2023-04-12T08:05:44.281Z,10.50
2023-04-12T08:08:12.456Z,10.60
2023-04-12T08:10:41.112Z,10.60
2023-04-12T08:13:10.315Z,10.60
2023-04-12T08:15:38.260Z,10.60
2023-04-12T08:18:06.497Z,10.70
2023-04-12T08:20:34.523Z,10.80
2023-04-12T08:23:02.451Z,10.80
2023-04-12T08:25:36.977Z,10.90
2023-04-12T08:28:05.063Z,10.90
2023-04-12T08:30:34.923Z,11.00
2023-04-12T08:33:03.350Z,11.10
2023-04-12T08:35:31.989Z,11.20
2023-04-12T08:38:06.995Z,11.30
2023-04-12T08:40:35.269Z,11.30
2023-04-12T08:43:06.096Z,11.50
2023-04-12T08:45:36.328Z,11.80
2023-04-12T08:48:05.913Z,12.10
2023-04-12T08:50:34.182Z,12.20
2023-04-12T08:53:02.776Z,12.10
2023-04-12T08:55:30.981Z,11.90
2023-04-12T08:57:59.419Z,11.80
2023-04-12T09:00:27.678Z,11.90
2023-04-12T09:02:57.171Z,11.90
2023-04-12T09:05:29.426Z,12.00
2023-04-12T09:07:57.860Z,12.00
2023-04-12T09:10:33.707Z,12.00
2023-04-12T09:13:02.166Z,12.00
2023-04-12T09:15:30.698Z,12.40
2023-04-12T09:18:08.251Z,12.60
2023-04-12T09:20:36.660Z,12.40
2023-04-12T09:23:17.932Z,12.70
2023-04-12T09:25:48.292Z,12.70
2023-04-12T09:28:24.181Z,12.80
2023-04-12T09:30:52.873Z,12.60
2023-04-12T09:33:22.648Z,12.60
2023-04-12T09:35:51.900Z,12.70
2023-04-12T09:38:19.786Z,12.40
2023-04-12T09:40:48.807Z,12.30
2023-04-12T09:43:17.014Z,12.20
2023-04-12T09:45:44.993Z,12.20
2023-04-12T09:48:19.947Z,12.10
2023-04-12T09:50:49.510Z,12.00
2023-04-12T09:53:18.851Z,12.00
2023-04-12T09:55:47.758Z,12.10
2023-04-12T09:58:19.063Z,11.90
2023-04-12T10:00:46.979Z,11.80
2023-04-12T10:03:14.981Z,11.60
2023-04-12T10:05:43.241Z,11.70
2023-04-12T10:08:15.295Z,11.80
2023-04-12T10:10:45.897Z,11.90
2023-04-12T10:13:14.226Z,11.90
2023-04-12T10:15:42.443Z,11.80
2023-04-12T10:18:11.974Z,11.80
2023-04-12T10:20:41.335Z,11.60
2023-04-12T10:23:09.300Z,11.50
2023-04-12T10:25:39.334Z,11.60
2023-04-12T10:28:17.294Z,11.60
2023-04-12T10:30:45.668Z,11.60
2023-04-12T10:33:20.231Z,11.50
2023-04-12T10:35:52.779Z,11.40
2023-04-12T10:38:20.738Z,11.30
2023-04-12T10:41:03.458Z,11.30
2023-04-12T10:43:33.072Z,11.40
2023-04-12T10:46:05.005Z,11.40
2023-04-12T10:48:33.253Z,11.70
2023-04-12T10:51:14.922Z,11.80
2023-04-12T10:53:42.804Z,11.90
2023-04-12T10:56:31.545Z,11.90
2023-04-12T10:59:02.445Z,11.90
2023-04-12T11:01:31.637Z,11.80
2023-04-12T11:04:09.446Z,11.70
2023-04-12T11:06:44.185Z,11.60
2023-04-12T11:09:18.618Z,11.50
2023-04-12T11:11:46.991Z,11.60
2023-04-12T11:14:16.791Z,11.60
2023-04-12T11:17:03.404Z,11.70
2023-04-12T11:19:32.266Z,11.70
2023-04-12T11:22:01.317Z,11.90
2023-04-12T11:24:29.280Z,12.10
2023-04-12T11:26:57.638Z,12.30
2023-04-12T11:29:27.228Z,12.60
2023-04-12T11:31:56.158Z,12.70
2023-04-12T11:34:24.179Z,12.80
2023-04-12T11:36:53.497Z,13.00
2023-04-12T11:39:22.181Z,13.20
2023-04-12T11:41:50.234Z,13.20
2023-04-12T11:44:19.097Z,13.30
2023-04-12T11:46:48.515Z,13.50
2023-04-12T11:49:17.275Z,13.40
2023-04-12T11:51:48.188Z,13.00
2023-04-12T11:54:17.491Z,12.30
2023-04-12T11:56:47.417Z,11.40
2023-04-12T11:59:15.288Z,10.90
2023-04-12T12:01:43.669Z,10.50
2023-04-12T12:04:13.398Z,10.40
2023-04-12T12:06:41.540Z,10.30
2023-04-12T12:09:09.773Z,10.30
2023-04-12T12:11:38.081Z,10.20
2023-04-12T12:14:07.225Z,10.20
2023-04-12T12:16:36.129Z,10.20
2023-04-12T12:19:05.150Z,10.10
2023-04-12T12:21:34.393Z,10.10
2023-04-12T12:24:02.513Z,10.10
2023-04-12T12:26:30.681Z,10.30
2023-04-12T12:29:00.255Z,10.40
2023-04-12T12:31:29.123Z,10.90
2023-04-12T12:33:58.185Z,11.40
2023-04-12T12:36:33.376Z,11.70
2023-04-12T12:39:08.041Z,11.80
2023-04-12T12:41:36.116Z,11.50
2023-04-12T12:44:04.305Z,11.60
2023-04-12T12:46:50.673Z,11.80
2023-04-12T12:49:19.271Z,11.80
2023-04-12T12:51:48.115Z,12.00
2023-04-12T12:54:28.458Z,12.20
2023-04-12T12:57:05.508Z,12.10
2023-04-12T12:59:33.399Z,12.00
2023-04-12T13:02:01.246Z,11.60
2023-04-12T13:04:30.016Z,11.50
2023-04-12T13:06:59.003Z,11.40
2023-04-12T13:09:28.133Z,11.30
2023-04-12T13:11:57.283Z,10.70
2023-04-12T13:14:25.186Z,10.40
2023-04-12T13:16:53.008Z,10.20
2023-04-12T13:19:21.119Z,9.90
2023-04-12T13:21:49.942Z,9.70
2023-04-12T13:24:19.199Z,9.60
2023-04-12T13:26:48.560Z,9.60
2023-04-12T13:29:16.314Z,9.60
2023-04-12T13:31:44.211Z,9.60
2023-04-12T13:34:12.208Z,9.80
2023-04-12T13:36:39.912Z,9.80
2023-04-12T13:39:07.767Z,10.10
2023-04-12T13:41:36.145Z,10.30
2023-04-12T13:44:05.464Z,10.70
2023-04-12T13:46:33.318Z,10.90
2023-04-12T13:49:01.682Z,11.20
2023-04-12T13:51:30.034Z,11.30
2023-04-12T13:53:57.745Z,11.50
2023-04-12T13:56:25.853Z,11.80
2023-04-12T13:58:53.778Z,11.90
2023-04-12T14:01:25.386Z,12.00
2023-04-12T14:03:53.890Z,12.10
2023-04-12T14:06:21.910Z,12.00
2023-04-12T14:08:49.987Z,12.00
2023-04-12T14:11:18.257Z,11.90
2023-04-12T14:13:46.077Z,11.70
2023-04-12T14:16:13.895Z,11.50
2023-04-12T14:18:43.422Z,11.40
2023-04-12T14:21:11.431Z,11.20
2023-04-12T14:23:40.063Z,10.90
2023-04-12T14:26:08.330Z,10.40
2023-04-12T14:28:36.082Z,9.50
2023-04-12T14:31:06.449Z,8.70
2023-04-12T14:33:35.015Z,8.40
2023-04-12T14:36:05.422Z,8.60
2023-04-12T14:38:33.421Z,8.70
2023-04-12T14:41:01.838Z,8.80
2023-04-12T14:43:29.803Z,8.80
2023-04-12T14:45:57.747Z,8.80
2023-04-12T14:48:26.092Z,8.80
2023-04-12T14:50:54.990Z,8.80
2023-04-12T14:53:24.144Z,8.80
2023-04-12T14:55:52.244Z,8.80
2023-04-12T14:58:20.272Z,8.80
2023-04-12T15:00:49.489Z,8.90
2023-04-12T15:03:18.277Z,8.80
2023-04-12T15:05:47.203Z,8.90
2023-04-12T15:08:15.554Z,8.90
2023-04-12T15:10:45.033Z,9.00
2023-04-12T15:13:12.985Z,9.10
2023-04-12T15:15:41.878Z,9.20
2023-04-12T15:18:10.042Z,9.30
2023-04-12T15:20:38.192Z,9.50
2023-04-12T15:23:06.647Z,9.70
2023-04-12T15:25:34.763Z,9.80
2023-04-12T15:28:04.077Z,9.90
2023-04-12T15:30:31.946Z,9.80
2023-04-12T15:33:00.221Z,9.90
2023-04-12T15:35:28.146Z,9.70
2023-04-12T15:37:56.036Z,9.80
2023-04-12T15:40:24.572Z,10.00
2023-04-12T15:42:52.400Z,10.20
2023-04-12T15:45:21.731Z,10.40
2023-04-12T15:47:49.832Z,10.40
2023-04-12T15:50:19.023Z,10.30
2023-04-12T15:52:47.098Z,10.30
2023-04-12T15:55:17.034Z,10.30
2023-04-12T15:57:44.899Z,10.20
2023-04-12T16:00:21.932Z,10.10
2023-04-12T16:02:54.957Z,10.10
2023-04-12T16:05:24.722Z,10.10
2023-04-12T16:07:52.766Z,10.10
2023-04-12T16:10:21.074Z,10.10
2023-04-12T16:12:49.804Z,10.00
2023-04-12T16:15:18.182Z,10.00
2023-04-12T16:17:47.188Z,10.00
2023-04-12T16:20:19.534Z,10.20
2023-04-12T16:22:48.391Z,10.20
2023-04-12T16:25:16.754Z,10.50
2023-04-12T16:27:45.103Z,10.60
2023-04-12T16:30:15.598Z,10.70
2023-04-12T16:32:44.751Z,10.70
2023-04-12T16:35:13.156Z,10.60
2023-04-12T16:37:42.454Z,10.60
2023-04-12T16:40:12.576Z,10.60
2023-04-12T16:42:40.966Z,10.60
2023-04-12T16:45:09.832Z,10.60
2023-04-12T16:47:37.662Z,10.70
2023-04-12T16:50:08.701Z,10.70
2023-04-12T16:52:37.720Z,10.70
2023-04-12T16:55:11.009Z,10.70
2023-04-12T16:57:39.984Z,10.70
2023-04-12T17:00:19.689Z,10.60
2023-04-12T17:02:48.312Z,10.60
2023-04-12T17:05:18.144Z,10.60
2023-04-12T17:07:49.961Z,10.60
2023-04-12T17:10:20.474Z,10.60
2023-04-12T17:12:49.331Z,10.50
2023-04-12T17:15:18.403Z,10.60
2023-04-12T17:17:47.494Z,10.40
2023-04-12T17:20:16.824Z,10.40
2023-04-12T17:22:44.725Z,10.40
2023-04-12T17:25:13.314Z,10.30
2023-04-12T17:27:42.671Z,10.30
2023-04-12T17:30:12.375Z,10.20
2023-04-12T17:32:41.120Z,10.20
2023-04-12T17:35:10.114Z,10.20
2023-04-12T17:37:38.497Z,10.30
2023-04-12T17:40:07.093Z,10.30
2023-04-12T17:42:34.873Z,10.30
2023-04-12T17:45:04.266Z,10.40
2023-04-12T17:47:33.937Z,10.30
2023-04-12T17:50:02.541Z,10.40
2023-04-12T17:52:30.636Z,10.30
2023-04-12T17:54:58.652Z,10.30
2023-04-12T17:57:27.606Z,10.20
2023-04-12T17:59:55.839Z,10.20
2023-04-12T18:02:25.238Z,10.20
2023-04-12T18:04:53.206Z,10.10
2023-04-12T18:07:21.442Z,10.10
2023-04-12T18:09:49.196Z,10.00
2023-04-12T18:12:17.508Z,9.90
2023-04-12T18:14:45.737Z,9.80
2023-04-12T18:17:13.526Z,9.80
2023-04-12T18:19:42.884Z,9.70
2023-04-12T18:22:10.866Z,9.70
2023-04-12T18:24:39.015Z,9.60
2023-04-12T18:27:07.128Z,9.60
2023-04-12T18:29:35.072Z,9.60
2023-04-12T18:32:02.972Z,9.50
2023-04-12T18:34:31.058Z,9.40
2023-04-12T18:37:04.144Z,9.30
2023-04-12T18:39:33.187Z,9.20
2023-04-12T18:42:01.341Z,9.10
2023-04-12T18:44:30.297Z,9.00
2023-04-12T18:46:58.203Z,9.00
2023-04-12T18:49:26.074Z,8.90
2023-04-12T18:51:58.286Z,8.90
2023-04-12T18:54:29.009Z,8.90
2023-04-12T18:57:00.981Z,8.70
2023-04-12T18:59:29.022Z,8.70
2023-04-12T19:01:56.816Z,8.60
2023-04-12T19:04:24.975Z,8.60
2023-04-12T19:06:53.157Z,8.50
2023-04-12T19:09:21.351Z,8.40
2023-04-12T19:11:50.642Z,8.40
2023-04-12T19:14:18.618Z,8.30
2023-04-12T19:16:46.532Z,8.30
2023-04-12T19:19:14.360Z,8.20
2023-04-12T19:21:42.358Z,8.20
2023-04-12T19:24:10.120Z,8.20
2023-04-12T19:26:40.124Z,8.10
2023-04-12T19:29:09.443Z,8.10
2023-04-12T19:31:37.693Z,8.00
2023-04-12T19:34:06.348Z,8.00
2023-04-12T19:36:34.708Z,7.90
2023-04-12T19:39:02.648Z,7.90
2023-04-12T19:41:30.781Z,7.90
2023-04-12T19:43:58.823Z,7.90
2023-04-12T19:46:28.900Z,7.80
2023-04-12T19:48:58.059Z,8.00
2023-04-12T19:51:26.620Z,7.80
2023-04-12T19:53:54.805Z,7.80
2023-04-12T19:56:23.738Z,7.80
2023-04-12T19:58:53.543Z,7.80
2023-04-12T20:01:21.425Z,7.80
2023-04-12T20:03:51.013Z,7.70
2023-04-12T20:06:19.031Z,7.70
2023-04-12T20:08:46.892Z,7.70
2023-04-12T20:11:15.477Z,7.60
2023-04-12T20:13:43.397Z,7.60
2023-04-12T20:16:11.226Z,7.60
2023-04-12T20:18:39.257Z,7.50
2023-04-12T20:21:10.077Z,7.50
2023-04-12T20:23:37.968Z,7.50
2023-04-12T20:26:06.318Z,7.50
2023-04-12T20:28:34.360Z,7.40
2023-04-12T20:31:02.905Z,7.40
2023-04-12T20:33:30.957Z,7.40
2023-04-12T20:35:59.716Z,7.40
2023-04-12T20:38:30.077Z,7.30
2023-04-12T20:40:58.617Z,7.30
2023-04-12T20:43:27.114Z,7.30
2023-04-12T20:45:54.937Z,7.30
2023-04-12T20:48:22.731Z,7.30
2023-04-12T20:50:51.706Z,7.30
2023-04-12T20:53:19.517Z,7.30
2023-04-12T20:55:48.778Z,7.30
2023-04-12T20:58:17.817Z,7.30
2023-04-12T21:00:46.785Z,7.30
2023-04-12T21:03:15.164Z,7.30
2023-04-12T21:05:43.099Z,7.30
2023-04-12T21:08:11.718Z,7.30
2023-04-12T21:10:39.663Z,7.30
2023-04-12T21:13:08.961Z,7.40
2023-04-12T21:15:36.753Z,7.40
2023-04-12T21:18:04.905Z,7.60
2023-04-12T21:20:33.951Z,7.40
2023-04-12T21:23:02.101Z,7.50
2023-04-12T21:25:30.125Z,7.50
2023-04-12T21:27:57.999Z,7.50
2023-04-12T21:30:27.056Z,7.60
2023-04-12T21:32:54.908Z,7.60
2023-04-12T21:35:23.194Z,7.60
2023-04-12T21:37:51.689Z,7.70
2023-04-12T21:40:20.310Z,7.80
2023-04-12T21:42:48.280Z,7.70
2023-04-12T21:45:16.553Z,7.80
2023-04-12T21:47:45.787Z,7.80
2023-04-12T21:50:14.585Z,7.80
2023-04-12T21:52:44.140Z,7.90
2023-04-12T21:55:12.013Z,7.90
2023-04-12T21:57:40.196Z,7.90
2023-04-12T22:00:10.184Z,7.90
2023-04-12T22:02:38.147Z,8.00
2023-04-12T22:05:07.658Z,8.10
2023-04-12T22:07:35.419Z,8.10
2023-04-12T22:10:03.266Z,8.20
2023-04-12T22:12:33.900Z,8.20
2023-04-12T22:15:01.651Z,8.20
2023-04-12T22:17:31.338Z,8.20
2023-04-12T22:19:59.726Z,8.20
2023-04-12T22:22:29.216Z,8.20
2023-04-12T22:24:57.245Z,8.20
2023-04-12T22:27:26.709Z,8.20
2023-04-12T22:29:54.592Z,8.10
2023-04-12T22:32:22.858Z,8.10
2023-04-12T22:34:58.048Z,8.10
2023-04-12T22:37:34.955Z,8.00
2023-04-12T22:40:05.053Z,8.00
2023-04-12T22:42:33.054Z,7.90
2023-04-12T22:45:00.862Z,7.90
2023-04-12T22:47:29.742Z,7.80
2023-04-12T22:50:01.727Z,7.80
2023-04-12T22:52:31.065Z,7.70
2023-04-12T22:55:00.474Z,7.60
2023-04-12T22:57:28.374Z,7.60
2023-04-12T22:59:57.708Z,7.70
2023-04-12T23:02:25.645Z,7.60
2023-04-12T23:04:53.670Z,7.60
2023-04-12T23:07:21.960Z,7.50
2023-04-12T23:09:50.801Z,7.50
2023-04-12T23:12:20.026Z,7.50
2023-04-12T23:14:48.542Z,7.50
2023-04-12T23:17:19.705Z,7.60
2023-04-12T23:19:47.852Z,7.60
2023-04-12T23:22:22.535Z,7.50
2023-04-12T23:24:51.326Z,7.60
2023-04-12T23:27:20.555Z,7.60
2023-04-12T23:29:50.317Z,7.60
2023-04-12T23:32:18.783Z,7.60
2023-04-12T23:34:46.934Z,7.60
2023-04-12T23:37:15.222Z,7.50
2023-04-12T23:39:43.244Z,7.50
2023-04-12T23:42:11.730Z,7.50
2023-04-12T23:44:41.117Z,7.40
2023-04-12T23:47:09.017Z,7.40
2023-04-12T23:49:36.824Z,7.30
2023-04-12T23:52:04.781Z,7.40
2023-04-12T23:54:32.460Z,7.30
2023-04-12T23:57:01.386Z,7.30
2023-04-12T23:59:29.401Z,7.30
